sensor_id;sensor_type;location;lat;lon;timestamp;P1;durP1;ratioP1;P2;durP2;ratioP2
9140;SDS011;46330;50.822;7.126;2023-03-31T00:01:19;3.40;;;1.50;;
9140;SDS011;46330;50.822;7.126;2023-03-31T00:03:47;5.53;;;1.30;;
9140;SDS011;46330;50.822;7.126;2023-03-31T00:06:15;6.78;;;1.20;;
9140;SDS011;46330;50.822;7.126;2023-03-31T00:08:45;4.63;;;1.42;;
9140;SDS011;46330;50.822;7.126;2023-03-31T00:11:17;4.20;;;1.30;;
9140;SDS011;46330;50.822;7.126;2023-03-31T00:13:47;2.97;;;1.27;;
9140;SDS011;46330;50.822;7.126;2023-03-31T00:16:15;5.47;;;1.20;;
9140;SDS011;46330;50.822;7.126;2023-03-31T00:18:43;6.03;;;1.30;;
9140;SDS011;46330;50.822;7.126;2023-03-31T00:21:13;7.47;;;1.42;;
9140;SDS011;46330;50.822;7.126;2023-03-31T00:23:52;4.93;;;1.42;;
9140;SDS011;46330;50.822;7.126;2023-03-31T00:26:21;4.18;;;1.38;;
9140;SDS011;46330;50.822;7.126;2023-03-31T00:28:50;4.20;;;0.95;;
9140;SDS011;46330;50.822;7.126;2023-03-31T00:31:19;5.80;;;1.25;;
9140;SDS011;46330;50.822;7.126;2023-03-31T00:33:48;6.15;;;1.50;;
9140;SDS011;46330;50.822;7.126;2023-03-31T00:36:17;4.25;;;1.17;;
9140;SDS011;46330;50.822;7.126;2023-03-31T00:41:20;5.55;;;1.30;;
9140;SDS011;46330;50.822;7.126;2023-03-31T00:44:06;7.45;;;1.30;;
9140;SDS011;46330;50.822;7.126;2023-03-31T00:46:36;4.88;;;1.10;;
9140;SDS011;46330;50.822;7.126;2023-03-31T00:49:11;5.05;;;1.20;;
9140;SDS011;46330;50.822;7.126;2023-03-31T00:51:43;3.80;;;1.27;;
9140;SDS011;46330;50.822;7.126;2023-03-31T00:54:12;3.78;;;0.90;;
9140;SDS011;46330;50.822;7.126;2023-03-31T00:56:41;4.57;;;1.00;;
9140;SDS011;46330;50.822;7.126;2023-03-31T00:59:14;3.92;;;1.10;;
9140;SDS011;46330;50.822;7.126;2023-03-31T01:01:44;5.65;;;1.33;;
9140;SDS011;46330;50.822;7.126;2023-03-31T01:04:16;3.22;;;1.10;;
9140;SDS011;46330;50.822;7.126;2023-03-31T01:06:50;5.57;;;1.23;;
9140;SDS011;46330;50.822;7.126;2023-03-31T01:09:26;4.22;;;1.00;;
9140;SDS011;46330;50.822;7.126;2023-03-31T01:12:00;5.55;;;1.10;;
9140;SDS011;46330;50.822;7.126;2023-03-31T01:14:31;5.75;;;1.15;;
9140;SDS011;46330;50.822;7.126;2023-03-31T01:16:59;2.42;;;1.02;;
9140;SDS011;46330;50.822;7.126;2023-03-31T01:19:31;4.20;;;0.90;;
9140;SDS011;46330;50.822;7.126;2023-03-31T01:22:16;4.60;;;0.90;;
9140;SDS011;46330;50.822;7.126;2023-03-31T01:28:10;3.45;;;1.05;;
9140;SDS011;46330;50.822;7.126;2023-03-31T01:43:28;4.60;;;1.20;;
9140;SDS011;46330;50.822;7.126;2023-03-31T01:46:03;4.45;;;1.40;;
9140;SDS011;46330;50.822;7.126;2023-03-31T01:48:43;4.47;;;1.30;;
9140;SDS011;46330;50.822;7.126;2023-03-31T01:51:18;6.30;;;1.40;;
9140;SDS011;46330;50.822;7.126;2023-03-31T01:53:54;7.88;;;1.08;;
9140;SDS011;46330;50.822;7.126;2023-03-31T01:56:32;7.22;;;1.90;;
9140;SDS011;46330;50.822;7.126;2023-03-31T01:59:06;6.50;;;1.75;;
9140;SDS011;46330;50.822;7.126;2023-03-31T02:01:40;6.18;;;1.63;;
9140;SDS011;46330;50.822;7.126;2023-03-31T02:04:13;6.45;;;1.30;;
9140;SDS011;46330;50.822;7.126;2023-03-31T02:06:45;7.88;;;1.70;;
9140;SDS011;46330;50.822;7.126;2023-03-31T02:09:22;7.85;;;1.42;;
9140;SDS011;46330;50.822;7.126;2023-03-31T02:11:54;9.52;;;1.60;;
9140;SDS011;46330;50.822;7.126;2023-03-31T02:14:27;6.28;;;1.42;;
9140;SDS011;46330;50.822;7.126;2023-03-31T02:16:58;5.03;;;1.50;;
9140;SDS011;46330;50.822;7.126;2023-03-31T02:19:31;8.98;;;1.40;;
9140;SDS011;46330;50.822;7.126;2023-03-31T02:22:03;8.30;;;1.33;;
9140;SDS011;46330;50.822;7.126;2023-03-31T02:24:33;6.97;;;1.50;;
9140;SDS011;46330;50.822;7.126;2023-03-31T02:27:04;9.25;;;1.80;;
9140;SDS011;46330;50.822;7.126;2023-03-31T02:29:37;8.88;;;1.75;;
9140;SDS011;46330;50.822;7.126;2023-03-31T02:32:08;7.25;;;1.58;;
9140;SDS011;46330;50.822;7.126;2023-03-31T02:34:40;6.70;;;1.70;;
9140;SDS011;46330;50.822;7.126;2023-03-31T02:37:08;10.88;;;1.77;;
9140;SDS011;46330;50.822;7.126;2023-03-31T02:39:38;5.82;;;1.58;;
9140;SDS011;46330;50.822;7.126;2023-03-31T02:42:10;10.38;;;1.95;;
9140;SDS011;46330;50.822;7.126;2023-03-31T02:44:39;8.10;;;1.52;;
9140;SDS011;46330;50.822;7.126;2023-03-31T02:47:09;7.80;;;1.88;;
9140;SDS011;46330;50.822;7.126;2023-03-31T02:49:39;7.18;;;2.10;;
9140;SDS011;46330;50.822;7.126;2023-03-31T02:52:19;9.07;;;1.98;;
9140;SDS011;46330;50.822;7.126;2023-03-31T02:55:01;11.43;;;1.90;;
9140;SDS011;46330;50.822;7.126;2023-03-31T03:00:49;6.97;;;1.75;;
9140;SDS011;46330;50.822;7.126;2023-03-31T03:03:33;5.53;;;1.40;;
9140;SDS011;46330;50.822;7.126;2023-03-31T03:06:12;12.02;;;2.20;;
9140;SDS011;46330;50.822;7.126;2023-03-31T03:09:14;7.43;;;1.85;;
9140;SDS011;46330;50.822;7.126;2023-03-31T03:11:58;8.60;;;1.77;;
9140;SDS011;46330;50.822;7.126;2023-03-31T03:14:36;5.82;;;1.70;;
9140;SDS011;46330;50.822;7.126;2023-03-31T03:17:13;8.02;;;1.88;;
9140;SDS011;46330;50.822;7.126;2023-03-31T03:19:49;6.05;;;1.73;;
9140;SDS011;46330;50.822;7.126;2023-03-31T03:22:18;7.13;;;1.50;;
9140;SDS011;46330;50.822;7.126;2023-03-31T03:24:46;6.78;;;1.83;;
9140;SDS011;46330;50.822;7.126;2023-03-31T03:27:14;7.63;;;2.17;;
9140;SDS011;46330;50.822;7.126;2023-03-31T03:29:42;8.73;;;2.00;;
9140;SDS011;46330;50.822;7.126;2023-03-31T03:32:10;12.70;;;2.20;;
9140;SDS011;46330;50.822;7.126;2023-03-31T03:34:39;7.10;;;1.95;;
9140;SDS011;46330;50.822;7.126;2023-03-31T03:37:07;9.00;;;1.92;;
9140;SDS011;46330;50.822;7.126;2023-03-31T03:39:35;9.27;;;1.67;;
9140;SDS011;46330;50.822;7.126;2023-03-31T03:42:03;8.15;;;2.13;;
9140;SDS011;46330;50.822;7.126;2023-03-31T03:44:31;8.30;;;2.05;;
9140;SDS011;46330;50.822;7.126;2023-03-31T03:46:59;7.65;;;1.70;;
9140;SDS011;46330;50.822;7.126;2023-03-31T03:49:28;6.13;;;1.60;;
9140;SDS011;46330;50.822;7.126;2023-03-31T03:51:56;5.20;;;1.50;;
9140;SDS011;46330;50.822;7.126;2023-03-31T03:54:24;5.55;;;1.60;;
9140;SDS011;46330;50.822;7.126;2023-03-31T03:56:52;6.75;;;1.70;;
9140;SDS011;46330;50.822;7.126;2023-03-31T03:59:20;6.68;;;1.63;;
9140;SDS011;46330;50.822;7.126;2023-03-31T04:01:48;4.97;;;1.40;;
9140;SDS011;46330;50.822;7.126;2023-03-31T04:04:17;5.65;;;1.75;;
9140;SDS011;46330;50.822;7.126;2023-03-31T04:06:46;6.53;;;1.85;;
9140;SDS011;46330;50.822;7.126;2023-03-31T04:09:14;6.70;;;1.25;;
9140;SDS011;46330;50.822;7.126;2023-03-31T04:11:42;4.28;;;1.10;;
9140;SDS011;46330;50.822;7.126;2023-03-31T04:14:10;6.20;;;1.48;;
9140;SDS011;46330;50.822;7.126;2023-03-31T04:16:38;6.38;;;1.42;;
9140;SDS011;46330;50.822;7.126;2023-03-31T04:19:06;6.65;;;1.63;;
9140;SDS011;46330;50.822;7.126;2023-03-31T04:21:36;4.25;;;1.27;;
9140;SDS011;46330;50.822;7.126;2023-03-31T04:24:11;5.47;;;1.30;;
9140;SDS011;46330;50.822;7.126;2023-03-31T04:26:41;3.00;;;0.80;;
9140;SDS011;46330;50.822;7.126;2023-03-31T04:29:09;4.57;;;1.05;;
9140;SDS011;46330;50.822;7.126;2023-03-31T04:31:39;6.18;;;1.30;;
9140;SDS011;46330;50.822;7.126;2023-03-31T04:34:10;4.10;;;1.10;;
9140;SDS011;46330;50.822;7.126;2023-03-31T04:36:39;2.83;;;1.10;;
9140;SDS011;46330;50.822;7.126;2023-03-31T04:39:14;5.60;;;1.25;;
9140;SDS011;46330;50.822;7.126;2023-03-31T04:41:43;5.30;;;1.13;;
9140;SDS011;46330;50.822;7.126;2023-03-31T04:44:11;4.10;;;1.05;;
9140;SDS011;46330;50.822;7.126;2023-03-31T04:46:39;3.67;;;1.17;;
9140;SDS011;46330;50.822;7.126;2023-03-31T04:49:07;4.00;;;1.10;;
9140;SDS011;46330;50.822;7.126;2023-03-31T04:51:35;4.35;;;1.20;;
9140;SDS011;46330;50.822;7.126;2023-03-31T04:54:03;4.30;;;1.30;;
9140;SDS011;46330;50.822;7.126;2023-03-31T04:56:32;3.55;;;1.05;;
9140;SDS011;46330;50.822;7.126;2023-03-31T04:59:00;2.60;;;1.00;;
9140;SDS011;46330;50.822;7.126;2023-03-31T05:01:29;3.13;;;1.10;;
9140;SDS011;46330;50.822;7.126;2023-03-31T05:03:58;2.38;;;1.00;;
9140;SDS011;46330;50.822;7.126;2023-03-31T05:06:26;2.50;;;1.00;;
9140;SDS011;46330;50.822;7.126;2023-03-31T05:08:55;3.00;;;1.05;;
9140;SDS011;46330;50.822;7.126;2023-03-31T05:11:22;4.20;;;1.65;;
9140;SDS011;46330;50.822;7.126;2023-03-31T05:13:52;4.43;;;1.33;;
9140;SDS011;46330;50.822;7.126;2023-03-31T05:16:20;3.78;;;1.20;;
9140;SDS011;46330;50.822;7.126;2023-03-31T05:18:48;4.00;;;1.33;;
9140;SDS011;46330;50.822;7.126;2023-03-31T05:21:16;5.28;;;1.20;;
9140;SDS011;46330;50.822;7.126;2023-03-31T05:23:46;6.85;;;0.90;;
9140;SDS011;46330;50.822;7.126;2023-03-31T05:26:15;5.32;;;1.10;;
9140;SDS011;46330;50.822;7.126;2023-03-31T05:28:43;3.38;;;0.90;;
9140;SDS011;46330;50.822;7.126;2023-03-31T05:31:12;6.30;;;1.27;;
9140;SDS011;46330;50.822;7.126;2023-03-31T05:33:40;4.28;;;1.00;;
9140;SDS011;46330;50.822;7.126;2023-03-31T05:36:08;4.47;;;1.40;;
9140;SDS011;46330;50.822;7.126;2023-03-31T05:38:38;5.35;;;1.50;;
9140;SDS011;46330;50.822;7.126;2023-03-31T05:41:07;3.03;;;1.42;;
9140;SDS011;46330;50.822;7.126;2023-03-31T05:43:36;4.38;;;1.15;;
9140;SDS011;46330;50.822;7.126;2023-03-31T05:46:04;3.20;;;1.10;;
9140;SDS011;46330;50.822;7.126;2023-03-31T05:48:34;1.45;;;0.80;;
9140;SDS011;46330;50.822;7.126;2023-03-31T05:51:03;4.75;;;1.13;;
9140;SDS011;46330;50.822;7.126;2023-03-31T05:53:31;7.05;;;0.90;;
9140;SDS011;46330;50.822;7.126;2023-03-31T05:56:00;3.33;;;0.80;;
9140;SDS011;46330;50.822;7.126;2023-03-31T05:58:29;4.85;;;1.20;;
9140;SDS011;46330;50.822;7.126;2023-03-31T06:01:01;4.35;;;0.98;;
9140;SDS011;46330;50.822;7.126;2023-03-31T06:03:35;1.48;;;0.75;;
9140;SDS011;46330;50.822;7.126;2023-03-31T06:06:05;5.75;;;0.68;;
9140;SDS011;46330;50.822;7.126;2023-03-31T06:08:35;1.05;;;0.70;;
9140;SDS011;46330;50.822;7.126;2023-03-31T06:11:04;1.00;;;0.43;;
9140;SDS011;46330;50.822;7.126;2023-03-31T06:13:32;1.90;;;0.88;;
9140;SDS011;46330;50.822;7.126;2023-03-31T06:16:00;1.42;;;0.50;;
9140;SDS011;46330;50.822;7.126;2023-03-31T06:18:29;2.40;;;0.80;;
9140;SDS011;46330;50.822;7.126;2023-03-31T06:21:00;1.27;;;0.52;;
9140;SDS011;46330;50.822;7.126;2023-03-31T06:23:28;1.88;;;0.65;;
9140;SDS011;46330;50.822;7.126;2023-03-31T06:25:59;1.20;;;0.50;;
9140;SDS011;46330;50.822;7.126;2023-03-31T06:28:27;1.08;;;0.60;;
9140;SDS011;46330;50.822;7.126;2023-03-31T06:31:00;1.27;;;0.47;;
9140;SDS011;46330;50.822;7.126;2023-03-31T06:33:29;1.90;;;0.50;;
9140;SDS011;46330;50.822;7.126;2023-03-31T06:35:57;1.75;;;0.68;;
9140;SDS011;46330;50.822;7.126;2023-03-31T06:38:28;1.40;;;0.57;;
9140;SDS011;46330;50.822;7.126;2023-03-31T06:40:56;6.10;;;0.70;;
9140;SDS011;46330;50.822;7.126;2023-03-31T06:43:24;1.30;;;0.75;;
9140;SDS011;46330;50.822;7.126;2023-03-31T06:45:52;0.60;;;0.60;;
9140;SDS011;46330;50.822;7.126;2023-03-31T06:48:22;1.17;;;0.55;;
9140;SDS011;46330;50.822;7.126;2023-03-31T06:50:51;1.33;;;0.50;;
9140;SDS011;46330;50.822;7.126;2023-03-31T06:53:20;1.38;;;0.57;;
9140;SDS011;46330;50.822;7.126;2023-03-31T06:55:50;1.63;;;0.80;;
9140;SDS011;46330;50.822;7.126;2023-03-31T06:58:18;1.88;;;0.70;;
9140;SDS011;46330;50.822;7.126;2023-03-31T07:00:46;1.42;;;0.70;;
9140;SDS011;46330;50.822;7.126;2023-03-31T07:03:14;2.85;;;0.80;;
9140;SDS011;46330;50.822;7.126;2023-03-31T07:05:46;3.97;;;0.85;;
9140;SDS011;46330;50.822;7.126;2023-03-31T07:08:15;1.08;;;0.75;;
9140;SDS011;46330;50.822;7.126;2023-03-31T07:10:44;1.33;;;0.60;;
9140;SDS011;46330;50.822;7.126;2023-03-31T07:13:16;2.50;;;0.80;;
9140;SDS011;46330;50.822;7.126;2023-03-31T07:15:46;1.58;;;0.70;;
9140;SDS011;46330;50.822;7.126;2023-03-31T07:18:15;0.73;;;0.60;;
9140;SDS011;46330;50.822;7.126;2023-03-31T07:20:46;2.65;;;0.52;;
9140;SDS011;46330;50.822;7.126;2023-03-31T07:23:14;3.67;;;0.80;;
9140;SDS011;46330;50.822;7.126;2023-03-31T07:25:43;3.55;;;0.98;;
9140;SDS011;46330;50.822;7.126;2023-03-31T07:28:11;1.73;;;1.05;;
9140;SDS011;46330;50.822;7.126;2023-03-31T07:30:40;2.67;;;0.98;;
9140;SDS011;46330;50.822;7.126;2023-03-31T07:33:08;1.77;;;0.80;;
9140;SDS011;46330;50.822;7.126;2023-03-31T07:35:37;2.13;;;0.90;;
9140;SDS011;46330;50.822;7.126;2023-03-31T07:38:06;1.42;;;0.85;;
9140;SDS011;46330;50.822;7.126;2023-03-31T07:40:35;3.05;;;0.88;;
9140;SDS011;46330;50.822;7.126;2023-03-31T07:43:02;2.35;;;0.82;;
9140;SDS011;46330;50.822;7.126;2023-03-31T07:45:30;1.05;;;0.88;;
9140;SDS011;46330;50.822;7.126;2023-03-31T07:48:00;5.07;;;1.10;;
9140;SDS011;46330;50.822;7.126;2023-03-31T07:50:28;2.58;;;0.98;;
9140;SDS011;46330;50.822;7.126;2023-03-31T07:52:57;3.50;;;0.90;;
9140;SDS011;46330;50.822;7.126;2023-03-31T07:55:25;2.45;;;0.70;;
9140;SDS011;46330;50.822;7.126;2023-03-31T07:57:53;1.85;;;0.57;;
9140;SDS011;46330;50.822;7.126;2023-03-31T08:00:21;3.15;;;1.45;;
9140;SDS011;46330;50.822;7.126;2023-03-31T08:02:50;1.65;;;0.80;;
9140;SDS011;46330;50.822;7.126;2023-03-31T08:05:19;0.70;;;0.52;;
9140;SDS011;46330;50.822;7.126;2023-03-31T08:07:47;2.00;;;0.73;;
9140;SDS011;46330;50.822;7.126;2023-03-31T08:10:18;3.63;;;1.00;;
9140;SDS011;46330;50.822;7.126;2023-03-31T08:12:47;1.55;;;0.70;;
9140;SDS011;46330;50.822;7.126;2023-03-31T08:15:15;2.08;;;0.65;;
9140;SDS011;46330;50.822;7.126;2023-03-31T08:17:43;1.83;;;0.70;;
9140;SDS011;46330;50.822;7.126;2023-03-31T08:20:11;2.17;;;0.65;;
9140;SDS011;46330;50.822;7.126;2023-03-31T08:22:41;1.65;;;0.80;;
9140;SDS011;46330;50.822;7.126;2023-03-31T08:25:09;2.10;;;0.80;;
9140;SDS011;46330;50.822;7.126;2023-03-31T08:27:37;2.92;;;0.90;;
9140;SDS011;46330;50.822;7.126;2023-03-31T08:30:07;3.20;;;1.00;;
9140;SDS011;46330;50.822;7.126;2023-03-31T08:32:37;4.28;;;1.17;;
9140;SDS011;46330;50.822;7.126;2023-03-31T08:35:05;5.47;;;1.20;;
9140;SDS011;46330;50.822;7.126;2023-03-31T08:37:35;2.55;;;0.90;;
9140;SDS011;46330;50.822;7.126;2023-03-31T08:40:05;5.20;;;0.98;;
9140;SDS011;46330;50.822;7.126;2023-03-31T08:42:35;3.67;;;0.98;;
9140;SDS011;46330;50.822;7.126;2023-03-31T08:45:09;6.07;;;1.10;;
9140;SDS011;46330;50.822;7.126;2023-03-31T08:47:43;1.98;;;0.90;;
9140;SDS011;46330;50.822;7.126;2023-03-31T08:50:12;4.53;;;1.00;;
9140;SDS011;46330;50.822;7.126;2023-03-31T08:52:44;4.07;;;1.08;;
9140;SDS011;46330;50.822;7.126;2023-03-31T08:55:19;2.67;;;0.82;;
9140;SDS011;46330;50.822;7.126;2023-03-31T08:57:53;3.85;;;1.13;;
9140;SDS011;46330;50.822;7.126;2023-03-31T09:00:26;5.28;;;1.20;;
9140;SDS011;46330;50.822;7.126;2023-03-31T09:03:02;5.40;;;1.20;;
9140;SDS011;46330;50.822;7.126;2023-03-31T09:08:34;4.43;;;1.17;;
9140;SDS011;46330;50.822;7.126;2023-03-31T09:11:09;4.70;;;1.25;;
9140;SDS011;46330;50.822;7.126;2023-03-31T09:13:45;6.78;;;1.60;;
9140;SDS011;46330;50.822;7.126;2023-03-31T09:16:32;7.32;;;1.50;;
9140;SDS011;46330;50.822;7.126;2023-03-31T09:19:09;8.07;;;2.10;;
9140;SDS011;46330;50.822;7.126;2023-03-31T09:21:42;3.65;;;1.20;;
9140;SDS011;46330;50.822;7.126;2023-03-31T09:24:13;8.15;;;1.77;;
9140;SDS011;46330;50.822;7.126;2023-03-31T09:26:48;5.55;;;1.73;;
9140;SDS011;46330;50.822;7.126;2023-03-31T09:29:20;4.95;;;1.38;;
9140;SDS011;46330;50.822;7.126;2023-03-31T09:31:52;8.43;;;1.65;;
9140;SDS011;46330;50.822;7.126;2023-03-31T09:34:23;5.95;;;1.45;;
9140;SDS011;46330;50.822;7.126;2023-03-31T09:36:52;7.72;;;1.52;;
9140;SDS011;46330;50.822;7.126;2023-03-31T09:39:20;6.03;;;1.58;;
9140;SDS011;46330;50.822;7.126;2023-03-31T09:41:50;6.55;;;1.60;;
9140;SDS011;46330;50.822;7.126;2023-03-31T09:44:23;7.82;;;1.58;;
9140;SDS011;46330;50.822;7.126;2023-03-31T09:46:54;6.80;;;1.08;;
9140;SDS011;46330;50.822;7.126;2023-03-31T09:49:23;6.15;;;1.50;;
9140;SDS011;46330;50.822;7.126;2023-03-31T09:51:58;6.65;;;1.48;;
9140;SDS011;46330;50.822;7.126;2023-03-31T09:54:33;5.80;;;1.80;;
9140;SDS011;46330;50.822;7.126;2023-03-31T09:57:12;9.43;;;2.10;;
9140;SDS011;46330;50.822;7.126;2023-03-31T09:59:42;7.63;;;1.70;;
9140;SDS011;46330;50.822;7.126;2023-03-31T10:02:20;9.02;;;1.73;;
9140;SDS011;46330;50.822;7.126;2023-03-31T10:04:55;8.55;;;1.65;;
9140;SDS011;46330;50.822;7.126;2023-03-31T10:07:23;5.90;;;1.60;;
9140;SDS011;46330;50.822;7.126;2023-03-31T10:09:52;5.50;;;1.33;;
9140;SDS011;46330;50.822;7.126;2023-03-31T10:12:24;11.63;;;2.35;;
9140;SDS011;46330;50.822;7.126;2023-03-31T10:15:01;7.50;;;1.83;;
9140;SDS011;46330;50.822;7.126;2023-03-31T10:17:39;6.20;;;1.42;;
9140;SDS011;46330;50.822;7.126;2023-03-31T10:20:26;7.38;;;2.15;;
9140;SDS011;46330;50.822;7.126;2023-03-31T10:23:03;5.85;;;1.50;;
9140;SDS011;46330;50.822;7.126;2023-03-31T10:25:33;9.10;;;1.73;;
9140;SDS011;46330;50.822;7.126;2023-03-31T10:28:03;7.45;;;2.30;;
9140;SDS011;46330;50.822;7.126;2023-03-31T10:30:33;6.28;;;1.70;;
9140;SDS011;46330;50.822;7.126;2023-03-31T10:33:05;4.07;;;1.20;;
9140;SDS011;46330;50.822;7.126;2023-03-31T10:35:48;6.55;;;1.35;;
9140;SDS011;46330;50.822;7.126;2023-03-31T10:38:22;7.47;;;1.73;;
9140;SDS011;46330;50.822;7.126;2023-03-31T10:40:53;5.93;;;1.52;;
9140;SDS011;46330;50.822;7.126;2023-03-31T10:43:25;4.90;;;1.30;;
9140;SDS011;46330;50.822;7.126;2023-03-31T10:45:56;7.10;;;1.75;;
9140;SDS011;46330;50.822;7.126;2023-03-31T10:48:26;2.88;;;0.88;;
9140;SDS011;46330;50.822;7.126;2023-03-31T10:50:57;4.60;;;1.00;;
9140;SDS011;46330;50.822;7.126;2023-03-31T10:53:27;4.30;;;1.08;;
9140;SDS011;46330;50.822;7.126;2023-03-31T10:56:00;4.93;;;1.20;;
9140;SDS011;46330;50.822;7.126;2023-03-31T10:58:41;6.28;;;1.65;;
9140;SDS011;46330;50.822;7.126;2023-03-31T11:01:32;6.70;;;1.50;;
9140;SDS011;46330;50.822;7.126;2023-03-31T11:04:29;4.05;;;1.30;;
9140;SDS011;46330;50.822;7.126;2023-03-31T11:07:14;4.10;;;1.23;;
9140;SDS011;46330;50.822;7.126;2023-03-31T11:10:09;5.65;;;1.70;;
9140;SDS011;46330;50.822;7.126;2023-03-31T11:12:50;6.75;;;1.40;;
9140;SDS011;46330;50.822;7.126;2023-03-31T11:15:28;4.53;;;1.05;;
9140;SDS011;46330;50.822;7.126;2023-03-31T11:18:15;5.60;;;1.23;;
9140;SDS011;46330;50.822;7.126;2023-03-31T11:20:57;5.67;;;2.77;;
9140;SDS011;46330;50.822;7.126;2023-03-31T11:23:43;5.10;;;1.30;;
9140;SDS011;46330;50.822;7.126;2023-03-31T11:26:19;4.95;;;0.93;;
9140;SDS011;46330;50.822;7.126;2023-03-31T11:29:01;2.60;;;1.00;;
9140;SDS011;46330;50.822;7.126;2023-03-31T11:31:41;4.03;;;0.90;;
9140;SDS011;46330;50.822;7.126;2023-03-31T11:34:28;5.43;;;1.20;;
9140;SDS011;46330;50.822;7.126;2023-03-31T11:37:21;5.13;;;1.52;;
9140;SDS011;46330;50.822;7.126;2023-03-31T11:40:17;1.85;;;0.60;;
9140;SDS011;46330;50.822;7.126;2023-03-31T11:42:58;3.83;;;1.02;;
9140;SDS011;46330;50.822;7.126;2023-03-31T11:45:31;3.55;;;1.05;;
9140;SDS011;46330;50.822;7.126;2023-03-31T11:48:04;3.50;;;0.90;;
9140;SDS011;46330;50.822;7.126;2023-03-31T11:50:41;4.90;;;1.08;;
9140;SDS011;46330;50.822;7.126;2023-03-31T11:53:14;2.97;;;0.80;;
9140;SDS011;46330;50.822;7.126;2023-03-31T11:55:44;4.05;;;1.00;;
9140;SDS011;46330;50.822;7.126;2023-03-31T11:58:17;5.05;;;1.00;;
9140;SDS011;46330;50.822;7.126;2023-03-31T12:00:50;5.95;;;1.30;;
9140;SDS011;46330;50.822;7.126;2023-03-31T12:03:23;3.13;;;0.90;;
9140;SDS011;46330;50.822;7.126;2023-03-31T12:06:00;6.35;;;1.35;;
9140;SDS011;46330;50.822;7.126;2023-03-31T12:08:33;6.53;;;1.33;;
9140;SDS011;46330;50.822;7.126;2023-03-31T12:11:06;6.90;;;1.45;;
9140;SDS011;46330;50.822;7.126;2023-03-31T12:13:42;4.55;;;1.00;;
9140;SDS011;46330;50.822;7.126;2023-03-31T12:16:18;8.80;;;1.25;;
9140;SDS011;46330;50.822;7.126;2023-03-31T12:18:54;4.00;;;1.00;;
9140;SDS011;46330;50.822;7.126;2023-03-31T12:21:29;7.80;;;1.52;;
9140;SDS011;46330;50.822;7.126;2023-03-31T12:23:59;7.88;;;1.60;;
9140;SDS011;46330;50.822;7.126;2023-03-31T12:26:30;4.20;;;1.10;;
9140;SDS011;46330;50.822;7.126;2023-03-31T12:29:09;5.90;;;1.35;;
9140;SDS011;46330;50.822;7.126;2023-03-31T12:31:47;4.53;;;0.90;;
9140;SDS011;46330;50.822;7.126;2023-03-31T12:34:17;6.72;;;1.60;;
9140;SDS011;46330;50.822;7.126;2023-03-31T12:36:51;4.60;;;1.00;;
9140;SDS011;46330;50.822;7.126;2023-03-31T12:39:31;3.22;;;1.00;;
9140;SDS011;46330;50.822;7.126;2023-03-31T12:42:13;3.72;;;0.80;;
9140;SDS011;46330;50.822;7.126;2023-03-31T12:44:59;7.80;;;0.82;;
9140;SDS011;46330;50.822;7.126;2023-03-31T12:47:35;4.03;;;1.02;;
9140;SDS011;46330;50.822;7.126;2023-03-31T12:53:22;5.15;;;1.00;;
9140;SDS011;46330;50.822;7.126;2023-03-31T12:55:58;4.22;;;1.15;;
9140;SDS011;46330;50.822;7.126;2023-03-31T12:58:43;3.47;;;1.10;;
9140;SDS011;46330;50.822;7.126;2023-03-31T13:01:13;2.75;;;0.77;;
9140;SDS011;46330;50.822;7.126;2023-03-31T13:03:47;4.18;;;0.98;;
9140;SDS011;46330;50.822;7.126;2023-03-31T13:09:39;6.68;;;1.20;;
9140;SDS011;46330;50.822;7.126;2023-03-31T13:12:19;5.45;;;1.23;;
9140;SDS011;46330;50.822;7.126;2023-03-31T13:14:49;6.25;;;1.65;;
9140;SDS011;46330;50.822;7.126;2023-03-31T13:17:21;5.07;;;1.20;;
9140;SDS011;46330;50.822;7.126;2023-03-31T13:19:51;5.45;;;1.42;;
9140;SDS011;46330;50.822;7.126;2023-03-31T13:22:27;5.22;;;1.60;;
9140;SDS011;46330;50.822;7.126;2023-03-31T13:28:03;5.15;;;1.20;;
9140;SDS011;46330;50.822;7.126;2023-03-31T13:30:45;10.90;;;2.45;;
9140;SDS011;46330;50.822;7.126;2023-03-31T13:33:17;7.05;;;1.92;;
9140;SDS011;46330;50.822;7.126;2023-03-31T13:35:50;8.18;;;1.58;;
9140;SDS011;46330;50.822;7.126;2023-03-31T13:38:26;5.35;;;1.30;;
9140;SDS011;46330;50.822;7.126;2023-03-31T13:41:08;8.10;;;1.60;;
9140;SDS011;46330;50.822;7.126;2023-03-31T13:43:59;6.78;;;2.30;;
9140;SDS011;46330;50.822;7.126;2023-03-31T13:46:47;8.13;;;1.48;;
9140;SDS011;46330;50.822;7.126;2023-03-31T13:52:15;7.55;;;1.40;;
9140;SDS011;46330;50.822;7.126;2023-03-31T13:54:57;4.53;;;1.45;;
9140;SDS011;46330;50.822;7.126;2023-03-31T13:57:45;5.10;;;1.38;;
9140;SDS011;46330;50.822;7.126;2023-03-31T14:01:00;7.20;;;1.52;;
9140;SDS011;46330;50.822;7.126;2023-03-31T14:03:45;8.90;;;1.77;;
9140;SDS011;46330;50.822;7.126;2023-03-31T14:06:23;6.55;;;1.80;;
9140;SDS011;46330;50.822;7.126;2023-03-31T14:08:54;6.60;;;1.63;;
9140;SDS011;46330;50.822;7.126;2023-03-31T14:11:27;6.30;;;2.05;;
9140;SDS011;46330;50.822;7.126;2023-03-31T14:14:01;5.03;;;1.52;;
9140;SDS011;46330;50.822;7.126;2023-03-31T14:16:34;6.82;;;2.20;;
9140;SDS011;46330;50.822;7.126;2023-03-31T14:19:12;2.53;;;1.00;;
9140;SDS011;46330;50.822;7.126;2023-03-31T14:21:54;2.13;;;1.10;;
9140;SDS011;46330;50.822;7.126;2023-03-31T14:24:30;4.70;;;1.10;;
9140;SDS011;46330;50.822;7.126;2023-03-31T14:27:05;4.00;;;1.17;;
9140;SDS011;46330;50.822;7.126;2023-03-31T14:29:46;4.40;;;1.10;;
9140;SDS011;46330;50.822;7.126;2023-03-31T14:32:24;4.55;;;1.10;;
9140;SDS011;46330;50.822;7.126;2023-03-31T14:35:02;3.78;;;1.20;;
9140;SDS011;46330;50.822;7.126;2023-03-31T14:37:49;5.55;;;1.10;;
9140;SDS011;46330;50.822;7.126;2023-03-31T14:40:17;4.93;;;1.35;;
9140;SDS011;46330;50.822;7.126;2023-03-31T14:42:45;4.93;;;1.17;;
9140;SDS011;46330;50.822;7.126;2023-03-31T14:45:18;5.78;;;1.20;;
9140;SDS011;46330;50.822;7.126;2023-03-31T14:47:54;4.03;;;1.40;;
9140;SDS011;46330;50.822;7.126;2023-03-31T14:50:27;5.40;;;1.33;;
9140;SDS011;46330;50.822;7.126;2023-03-31T14:52:57;5.13;;;1.20;;
9140;SDS011;46330;50.822;7.126;2023-03-31T14:55:27;1.73;;;0.73;;
9140;SDS011;46330;50.822;7.126;2023-03-31T14:58:20;3.50;;;1.20;;
9140;SDS011;46330;50.822;7.126;2023-03-31T15:00:53;4.60;;;1.20;;
9140;SDS011;46330;50.822;7.126;2023-03-31T15:03:22;2.90;;;0.68;;
9140;SDS011;46330;50.822;7.126;2023-03-31T15:05:55;6.97;;;2.40;;
9140;SDS011;46330;50.822;7.126;2023-03-31T15:08:24;4.50;;;1.08;;
9140;SDS011;46330;50.822;7.126;2023-03-31T15:10:56;3.50;;;0.93;;
9140;SDS011;46330;50.822;7.126;2023-03-31T15:13:39;3.78;;;0.95;;
9140;SDS011;46330;50.822;7.126;2023-03-31T15:19:11;2.65;;;0.90;;
9140;SDS011;46330;50.822;7.126;2023-03-31T15:21:41;4.55;;;1.17;;
9140;SDS011;46330;50.822;7.126;2023-03-31T15:24:11;2.75;;;0.88;;
9140;SDS011;46330;50.822;7.126;2023-03-31T15:26:41;4.60;;;1.02;;
9140;SDS011;46330;50.822;7.126;2023-03-31T15:29:13;4.53;;;1.10;;
9140;SDS011;46330;50.822;7.126;2023-03-31T15:31:47;4.35;;;1.20;;
9140;SDS011;46330;50.822;7.126;2023-03-31T15:34:18;4.15;;;1.10;;
9140;SDS011;46330;50.822;7.126;2023-03-31T15:36:52;4.70;;;1.10;;
9140;SDS011;46330;50.822;7.126;2023-03-31T15:39:21;4.82;;;1.33;;
9140;SDS011;46330;50.822;7.126;2023-03-31T15:41:50;3.60;;;0.85;;
9140;SDS011;46330;50.822;7.126;2023-03-31T15:44:27;5.80;;;1.02;;
9140;SDS011;46330;50.822;7.126;2023-03-31T15:46:58;1.08;;;0.50;;
9140;SDS011;46330;50.822;7.126;2023-03-31T15:49:27;5.18;;;1.13;;
9140;SDS011;46330;50.822;7.126;2023-03-31T15:51:56;6.38;;;1.45;;
9140;SDS011;46330;50.822;7.126;2023-03-31T15:54:30;3.65;;;0.75;;
9140;SDS011;46330;50.822;7.126;2023-03-31T15:57:01;4.60;;;1.10;;
9140;SDS011;46330;50.822;7.126;2023-03-31T15:59:30;2.15;;;0.70;;
9140;SDS011;46330;50.822;7.126;2023-03-31T16:02:34;3.90;;;1.65;;
9140;SDS011;46330;50.822;7.126;2023-03-31T16:05:15;4.80;;;1.02;;
9140;SDS011;46330;50.822;7.126;2023-03-31T16:08:09;3.92;;;0.93;;
9140;SDS011;46330;50.822;7.126;2023-03-31T16:10:42;10.57;;;1.10;;
9140;SDS011;46330;50.822;7.126;2023-03-31T16:13:11;2.08;;;0.75;;
9140;SDS011;46330;50.822;7.126;2023-03-31T16:15:48;2.25;;;0.90;;